createdAt,value
2018-07-25T00:00:23.511Z,38.31
2018-07-25T00:01:23.483Z,38.41
2018-07-25T00:02:23.481Z,38.02
2018-07-25T00:03:23.156Z,38.14
2018-07-25T00:04:23.131Z,38.51
2018-07-25T00:05:23.455Z,38.31
2018-07-25T00:06:23.149Z,38.31
2018-07-25T00:07:23.447Z,38.43
2018-07-25T00:08:23.463Z,38.43
2018-07-25T00:09:23.454Z,38.53
2018-07-25T00:10:23.429Z,38.51
2018-07-25T00:11:23.424Z,38.43
2018-07-25T00:12:23.434Z,38.60
2018-07-25T00:13:23.079Z,38.62
2018-07-25T00:14:23.424Z,38.51
2018-07-25T00:15:23.081Z,38.60
2018-07-25T00:16:23.408Z,38.60
2018-07-25T00:17:23.401Z,38.51
2018-07-25T00:18:23.393Z,38.60
2018-07-25T00:19:23.384Z,38.51
2018-07-25T00:20:23.060Z,38.60
2018-07-25T00:21:23.408Z,38.62
2018-07-25T00:22:23.368Z,38.60
2018-07-25T00:23:23.007Z,38.60
2018-07-25T00:24:23.339Z,38.62
2018-07-25T00:25:22.992Z,38.62
2018-07-25T00:26:23.345Z,38.62
2018-07-25T00:27:23.322Z,38.60
2018-07-25T00:28:22.999Z,38.43
2018-07-25T00:29:23.306Z,38.60
2018-07-25T00:30:23.299Z,38.62
2018-07-25T00:31:22.980Z,38.62
2018-07-25T00:32:23.304Z,38.51
2018-07-25T00:33:23.301Z,38.60
2018-07-25T00:34:23.281Z,38.51
2018-07-25T00:35:23.285Z,38.51
2018-07-25T00:36:23.331Z,38.60
2018-07-25T00:37:23.275Z,38.60
2018-07-25T00:38:23.267Z,38.60
2018-07-25T00:39:23.255Z,38.60
2018-07-25T00:40:23.256Z,38.51
2018-07-25T00:41:23.235Z,38.53
2018-07-25T00:42:23.235Z,38.53
2018-07-25T00:43:23.236Z,38.60
2018-07-25T00:44:23.226Z,38.43
2018-07-25T00:45:23.225Z,38.60
2018-07-25T00:46:23.189Z,38.60
2018-07-25T00:47:23.218Z,38.41
2018-07-25T00:48:23.205Z,38.41
2018-07-25T00:49:22.842Z,38.31
2018-07-25T00:50:22.843Z,38.41
2018-07-25T00:51:23.187Z,38.41
2018-07-25T00:52:23.181Z,38.60
2018-07-25T00:53:22.840Z,38.41
2018-07-25T00:54:23.151Z,38.51
2018-07-25T00:55:23.145Z,38.31
2018-07-25T00:56:23.132Z,38.43
2018-07-25T00:57:22.795Z,38.51
2018-07-25T00:58:23.140Z,38.51
2018-07-25T00:59:22.803Z,38.71
2018-07-25T01:00:23.127Z,38.60
2018-07-25T01:01:23.109Z,38.62
2018-07-25T01:02:22.790Z,38.70
2018-07-25T01:03:23.120Z,38.60
2018-07-25T01:04:22.770Z,38.14
2018-07-25T01:05:22.775Z,38.12
2018-07-25T01:06:23.089Z,38.02
2018-07-25T01:07:23.085Z,37.75
2018-07-25T01:08:22.723Z,37.73
2018-07-25T01:09:23.051Z,37.73
2018-07-25T01:10:23.061Z,37.83
2018-07-25T01:11:22.737Z,37.46
2018-07-25T01:12:23.041Z,37.93
2018-07-25T01:13:23.024Z,37.85
2018-07-25T01:14:23.025Z,37.63
2018-07-25T01:15:23.037Z,37.45
2018-07-25T01:16:23.022Z,37.63
2018-07-25T01:17:22.663Z,37.65
2018-07-25T01:18:23.019Z,37.63
2018-07-25T01:19:23.004Z,37.63
2018-07-25T01:20:22.983Z,37.65
2018-07-25T01:21:22.996Z,37.73
2018-07-25T01:22:22.974Z,37.73
2018-07-25T01:23:22.981Z,37.54
2018-07-25T01:24:22.955Z,37.65
2018-07-25T01:25:22.637Z,37.75
2018-07-25T01:26:22.625Z,37.75
2018-07-25T01:27:22.930Z,37.83
2018-07-25T01:28:22.931Z,38.14
2018-07-25T01:29:22.945Z,37.93
2018-07-25T01:30:22.577Z,38.14
2018-07-25T01:31:22.928Z,38.04
2018-07-25T01:32:22.903Z,37.95
2018-07-25T01:33:22.584Z,37.93
2018-07-25T01:34:22.913Z,38.12
2018-07-25T01:35:22.877Z,37.83
2018-07-25T01:36:22.884Z,38.14
2018-07-25T01:37:22.560Z,37.83
2018-07-25T01:38:22.885Z,37.95
2018-07-25T01:39:22.544Z,38.04
2018-07-25T01:40:22.873Z,38.23
2018-07-25T01:41:22.530Z,38.23
2018-07-25T01:42:22.858Z,38.12
2018-07-25T01:43:22.839Z,38.12
2018-07-25T01:44:22.847Z,37.83
2018-07-25T01:45:22.840Z,38.12
2018-07-25T01:46:22.834Z,38.02
2018-07-25T01:47:22.819Z,38.12
2018-07-25T01:48:22.807Z,38.12
2018-07-25T01:49:22.815Z,38.60
2018-07-25T01:50:22.459Z,38.51
2018-07-25T01:51:22.461Z,38.60
2018-07-25T01:52:22.449Z,38.51
2018-07-25T01:53:22.447Z,38.12
2018-07-25T01:54:22.435Z,38.02
2018-07-25T01:55:22.766Z,38.62
2018-07-25T01:56:22.748Z,38.12
2018-07-25T01:57:22.744Z,37.83
2018-07-25T01:58:22.753Z,38.02
2018-07-25T01:59:22.754Z,38.12
2018-07-25T02:00:22.724Z,38.02
2018-07-25T02:01:22.765Z,37.83
2018-07-25T02:02:22.733Z,37.73
2018-07-25T02:03:22.723Z,38.02
2018-07-25T02:04:22.377Z,37.63
2018-07-25T02:05:22.715Z,37.73
2018-07-25T02:06:22.684Z,37.73
2018-07-25T02:07:22.682Z,37.93
2018-07-25T02:08:22.694Z,37.73
2018-07-25T02:09:22.336Z,37.95
2018-07-25T02:10:22.686Z,37.73
2018-07-25T02:11:22.681Z,37.83
2018-07-25T02:12:22.674Z,37.83
2018-07-25T02:13:22.309Z,37.83
2018-07-25T02:14:22.648Z,37.83
2018-07-25T02:15:22.629Z,37.73
2018-07-25T02:16:22.307Z,37.93
2018-07-25T02:17:22.643Z,37.83
2018-07-25T02:18:22.618Z,37.83
2018-07-25T02:19:22.638Z,38.02
2018-07-25T02:20:22.620Z,38.14
2018-07-25T02:21:22.281Z,37.93
2018-07-25T02:22:22.589Z,38.02
2018-07-25T02:23:22.580Z,38.12
2018-07-25T02:24:22.240Z,38.12
2018-07-25T02:25:22.575Z,38.02
2018-07-25T02:26:22.233Z,38.02
2018-07-25T02:27:22.578Z,38.02
2018-07-25T02:28:22.549Z,38.12
2018-07-25T02:29:22.548Z,38.51
2018-07-25T02:30:22.534Z,38.12
2018-07-25T02:31:22.548Z,38.60
2018-07-25T02:32:22.543Z,38.60
2018-07-25T02:33:22.523Z,38.51
2018-07-25T02:34:22.172Z,38.60
2018-07-25T02:35:22.521Z,38.51
2018-07-25T02:36:22.499Z,38.51
2018-07-25T02:37:22.491Z,38.60
2018-07-25T02:38:22.483Z,38.41
2018-07-25T02:39:22.508Z,38.60
2018-07-25T02:40:22.491Z,38.62
2018-07-25T02:41:22.128Z,38.60
2018-07-25T02:42:22.537Z,38.62
2018-07-25T02:43:22.118Z,38.62
2018-07-25T02:44:22.446Z,38.60
2018-07-25T02:45:22.455Z,38.60
2018-07-25T02:46:22.450Z,38.60
2018-07-25T02:47:22.425Z,38.51
2018-07-25T02:48:22.423Z,38.04
2018-07-25T02:49:22.435Z,38.23
2018-07-25T02:50:22.424Z,38.23
2018-07-25T02:51:22.097Z,38.04
2018-07-25T02:52:22.393Z,38.02
2018-07-25T02:53:22.402Z,38.14
2018-07-25T02:54:22.043Z,38.14
2018-07-25T02:55:22.382Z,38.14
2018-07-25T02:56:22.371Z,38.12
2018-07-25T02:57:22.379Z,37.85
2018-07-25T02:58:22.019Z,38.04
2018-07-25T02:59:22.019Z,37.85
2018-07-25T03:00:22.349Z,37.75
2018-07-25T03:01:22.339Z,37.85
2018-07-25T03:02:21.990Z,37.75
2018-07-25T03:03:22.343Z,37.73
2018-07-25T03:04:21.999Z,37.63
2018-07-25T03:05:22.332Z,37.45
2018-07-25T03:06:21.995Z,37.75
2018-07-25T03:07:21.964Z,38.04
2018-07-25T03:08:22.294Z,37.46
2018-07-25T03:09:22.292Z,37.75
2018-07-25T03:10:21.943Z,37.75
2018-07-25T03:11:22.293Z,37.75
2018-07-25T03:12:22.263Z,37.75
2018-07-25T03:13:22.279Z,37.95
2018-07-25T03:14:22.274Z,37.75
2018-07-25T03:15:22.265Z,37.75
2018-07-25T03:16:22.245Z,37.75
2018-07-25T03:17:22.253Z,37.85
2018-07-25T03:18:22.239Z,37.85
2018-07-25T03:19:22.243Z,37.75
2018-07-25T03:20:22.217Z,37.95
2018-07-25T03:21:22.218Z,37.85
2018-07-25T03:22:22.200Z,37.95
2018-07-25T03:23:22.201Z,38.14
2018-07-25T03:24:22.203Z,38.14
2018-07-25T03:25:22.216Z,38.14
2018-07-25T03:26:21.847Z,38.04
2018-07-25T03:27:21.848Z,38.14
2018-07-25T03:28:21.832Z,38.14
2018-07-25T03:29:22.179Z,37.95
2018-07-25T03:30:22.154Z,37.95
2018-07-25T03:31:22.223Z,38.04
2018-07-25T03:32:21.824Z,38.14
2018-07-25T03:33:22.135Z,38.14
2018-07-25T03:34:22.146Z,38.14
2018-07-25T03:35:22.138Z,38.53
2018-07-25T03:36:22.117Z,38.62
2018-07-25T03:37:22.149Z,38.62
2018-07-25T03:38:22.104Z,38.62
2018-07-25T03:39:22.125Z,38.62
2018-07-25T03:40:22.104Z,38.62
2018-07-25T03:41:22.097Z,38.62
2018-07-25T03:42:21.744Z,38.53
2018-07-25T03:43:22.071Z,38.62
2018-07-25T03:44:22.079Z,38.53
2018-07-25T03:45:21.740Z,38.53
2018-07-25T03:46:22.070Z,38.43
2018-07-25T03:47:22.035Z,38.33
2018-07-25T03:48:22.052Z,38.31
2018-07-25T03:49:21.727Z,38.33
2018-07-25T03:50:22.040Z,38.41
2018-07-25T03:51:22.028Z,38.31
2018-07-25T03:52:22.009Z,38.14
2018-07-25T03:53:22.007Z,38.14
2018-07-25T03:54:22.003Z,38.02
2018-07-25T03:55:21.668Z,38.33
2018-07-25T03:56:21.995Z,38.43
2018-07-25T03:57:21.988Z,38.33
2018-07-25T03:58:21.659Z,37.95
2018-07-25T03:59:21.976Z,38.02
2018-07-25T04:00:21.647Z,38.14
2018-07-25T04:01:21.975Z,38.02
2018-07-25T04:02:21.616Z,38.23
2018-07-25T04:03:21.598Z,37.93
2018-07-25T04:04:21.949Z,38.33
2018-07-25T04:05:21.926Z,38.14
2018-07-25T04:06:21.949Z,38.43
2018-07-25T04:07:21.935Z,38.33
2018-07-25T04:08:21.976Z,38.04
2018-07-25T04:09:21.912Z,38.04
2018-07-25T04:10:21.555Z,38.04
2018-07-25T04:11:21.910Z,38.43
2018-07-25T04:12:21.898Z,38.04
2018-07-25T04:13:21.542Z,38.04
2018-07-25T04:14:21.558Z,38.04
2018-07-25T04:15:21.871Z,38.14
2018-07-25T04:16:21.862Z,38.14
2018-07-25T04:17:21.858Z,38.04
2018-07-25T04:18:21.845Z,38.02
2018-07-25T04:19:21.860Z,38.02
2018-07-25T04:20:21.852Z,38.02
2018-07-25T04:21:21.827Z,38.02
2018-07-25T04:22:21.483Z,38.02
2018-07-25T04:23:21.836Z,38.02
2018-07-25T04:24:21.501Z,38.33
2018-07-25T04:25:21.467Z,38.14
2018-07-25T04:26:21.798Z,38.14
2018-07-25T04:27:21.808Z,38.33
2018-07-25T04:28:21.468Z,38.23
2018-07-25T04:29:21.460Z,38.23
2018-07-25T04:30:21.789Z,38.43
2018-07-25T04:31:21.427Z,38.43
2018-07-25T04:32:21.421Z,38.62
2018-07-25T04:33:21.752Z,38.62
2018-07-25T04:34:21.429Z,38.62
2018-07-25T04:35:21.738Z,39.01
2018-07-25T04:36:21.748Z,38.91
2018-07-25T04:37:21.756Z,39.29
2018-07-25T04:38:21.735Z,39.49
2018-07-25T04:39:21.732Z,39.49
2018-07-25T04:40:21.778Z,39.49
2018-07-25T04:41:21.728Z,39.49
2018-07-25T04:42:21.712Z,39.49
2018-07-25T04:43:21.705Z,39.59
2018-07-25T04:44:21.702Z,39.70
2018-07-25T04:45:21.686Z,39.69
2018-07-25T04:46:21.770Z,39.90
2018-07-25T04:47:21.680Z,39.90
2018-07-25T04:48:21.659Z,40.09
2018-07-25T04:49:21.316Z,40.47
2018-07-25T04:50:21.661Z,40.47
2018-07-25T04:51:21.660Z,40.77
2018-07-25T04:52:21.302Z,41.25
2018-07-25T04:53:21.647Z,40.86
2018-07-25T04:54:21.306Z,41.05
2018-07-25T04:55:21.635Z,41.35
2018-07-25T04:56:21.295Z,41.25
2018-07-25T04:57:21.620Z,41.44
2018-07-25T04:58:21.608Z,41.54
2018-07-25T04:59:21.647Z,41.54
2018-07-25T05:00:21.259Z,41.35
2018-07-25T05:01:21.576Z,41.73
2018-07-25T05:02:21.592Z,41.54
2018-07-25T05:03:21.590Z,41.73
2018-07-25T05:04:21.559Z,41.83
2018-07-25T05:05:21.222Z,41.93
2018-07-25T05:06:21.215Z,41.54
2018-07-25T05:07:21.560Z,41.83
2018-07-25T05:08:21.218Z,42.02
2018-07-25T05:09:21.716Z,41.93
2018-07-25T05:10:21.523Z,42.21
2018-07-25T05:11:21.513Z,42.21
2018-07-25T05:12:21.178Z,42.14
2018-07-25T05:13:21.521Z,41.85
2018-07-25T05:14:21.515Z,42.12
2018-07-25T05:15:21.499Z,42.14
2018-07-25T05:16:21.481Z,41.94
2018-07-25T05:17:21.163Z,42.24
2018-07-25T05:18:21.471Z,42.41
2018-07-25T05:19:21.488Z,42.14
2018-07-25T05:20:21.484Z,42.41
2018-07-25T05:21:21.455Z,42.04
2018-07-25T05:22:21.471Z,42.31
2018-07-25T05:23:21.194Z,42.02
2018-07-25T05:24:21.438Z,42.43
2018-07-25T05:25:21.429Z,42.12
2018-07-25T05:26:21.086Z,42.41
2018-07-25T05:27:21.095Z,42.31
2018-07-25T05:28:21.427Z,42.31
2018-07-25T05:29:21.089Z,42.43
2018-07-25T05:30:21.411Z,42.41
2018-07-25T05:31:21.413Z,42.41
2018-07-25T05:32:21.385Z,42.33
2018-07-25T05:33:21.072Z,42.43
2018-07-25T05:34:21.387Z,42.50
2018-07-25T05:35:21.387Z,42.50
2018-07-25T05:36:21.360Z,42.31
2018-07-25T05:37:21.355Z,42.43
2018-07-25T05:38:21.350Z,42.50
2018-07-25T05:39:21.362Z,42.50
2018-07-25T05:40:21.341Z,42.41
2018-07-25T05:41:21.357Z,42.33
2018-07-25T05:42:21.006Z,42.41
2018-07-25T05:43:21.322Z,42.41
2018-07-25T05:44:21.316Z,42.41
2018-07-25T05:45:21.307Z,42.33
2018-07-25T05:46:20.987Z,42.33
2018-07-25T05:47:21.296Z,42.50
2018-07-25T05:48:20.948Z,42.41
2018-07-25T05:49:21.333Z,42.43
2018-07-25T05:50:21.302Z,42.52
2018-07-25T05:51:20.939Z,42.41
2018-07-25T05:52:20.941Z,42.43
2018-07-25T05:53:21.279Z,42.33
2018-07-25T05:54:21.273Z,42.21
2018-07-25T05:55:20.912Z,42.33
2018-07-25T05:56:20.902Z,42.24
2018-07-25T05:57:21.255Z,42.24
2018-07-25T05:58:21.252Z,42.24
2018-07-25T05:59:21.217Z,42.43
2018-07-25T06:00:20.886Z,42.43
2018-07-25T06:01:20.894Z,42.21
2018-07-25T06:02:21.225Z,42.33
2018-07-25T06:03:21.275Z,42.02
2018-07-25T06:04:21.214Z,42.41
2018-07-25T06:05:21.186Z,41.94
2018-07-25T06:06:21.199Z,42.33
2018-07-25T06:07:20.829Z,42.12
2018-07-25T06:08:20.871Z,42.21
2018-07-25T06:09:21.153Z,42.12
2018-07-25T06:10:21.159Z,42.41
2018-07-25T06:11:21.148Z,42.43
2018-07-25T06:12:21.141Z,42.04
2018-07-25T06:13:21.140Z,42.04
2018-07-25T06:14:21.158Z,41.93
2018-07-25T06:15:21.142Z,42.33
2018-07-25T06:16:21.138Z,42.41
2018-07-25T06:17:21.137Z,42.43
2018-07-25T06:18:20.805Z,42.31
2018-07-25T06:19:21.111Z,42.41
2018-07-25T06:20:20.754Z,42.41
2018-07-25T06:21:21.089Z,42.33
2018-07-25T06:22:21.092Z,42.33
2018-07-25T06:23:21.076Z,42.31
2018-07-25T06:24:21.086Z,42.24
2018-07-25T06:25:20.744Z,42.43
2018-07-25T06:26:21.083Z,42.33
2018-07-25T06:27:20.740Z,42.41
2018-07-25T06:28:20.733Z,42.52
2018-07-25T06:29:21.056Z,42.33
2018-07-25T06:30:21.037Z,42.31
2018-07-25T06:31:21.053Z,42.50
2018-07-25T06:32:20.706Z,42.24
2018-07-25T06:33:20.678Z,42.41
2018-07-25T06:34:21.029Z,42.41
2018-07-25T06:35:21.006Z,42.43
2018-07-25T06:36:21.001Z,42.24
2018-07-25T06:37:21.009Z,42.21
2018-07-25T06:38:20.989Z,42.24
2018-07-25T06:39:21.071Z,42.02
2018-07-25T06:40:21.035Z,42.12
2018-07-25T06:41:21.086Z,42.21
2018-07-25T06:42:21.108Z,41.93
2018-07-25T06:43:20.757Z,42.24
2018-07-25T06:44:21.058Z,42.41
2018-07-25T06:45:22.589Z,42.43
2018-07-25T06:46:21.022Z,42.21
2018-07-25T06:47:21.040Z,42.04
2018-07-25T06:48:20.934Z,42.24
2018-07-25T06:49:20.924Z,42.52
2018-07-25T06:50:20.592Z,42.43
2018-07-25T06:51:20.927Z,42.12
2018-07-25T06:52:20.926Z,42.33
2018-07-25T06:53:20.918Z,42.04
2018-07-25T06:54:20.912Z,41.94
2018-07-25T06:55:20.907Z,41.94
2018-07-25T06:56:20.538Z,41.94
2018-07-25T06:57:20.894Z,41.85
2018-07-25T06:58:20.863Z,41.85
2018-07-25T06:59:20.877Z,42.33
2018-07-25T07:00:20.516Z,42.14
2018-07-25T07:01:20.856Z,42.24
2018-07-25T07:02:21.055Z,42.43
2018-07-25T07:03:20.963Z,41.94
2018-07-25T07:04:20.990Z,42.14
2018-07-25T07:05:20.962Z,42.04
2018-07-25T07:06:20.837Z,41.67
2018-07-25T07:07:20.559Z,41.58
2018-07-25T07:08:20.957Z,41.29
2018-07-25T07:09:20.524Z,40.05
2018-07-25T07:10:20.895Z,39.57
2018-07-25T07:11:20.820Z,39.20
2018-07-25T07:12:20.800Z,38.23
2018-07-25T07:13:20.796Z,37.67
2018-07-25T07:14:20.442Z,37.48
2018-07-25T07:15:20.800Z,37.38
2018-07-25T07:16:20.447Z,37.38
2018-07-25T07:17:20.778Z,37.57
2018-07-25T07:18:20.426Z,36.99
2018-07-25T07:19:20.413Z,37.67
2018-07-25T07:20:20.419Z,37.57
2018-07-25T07:21:20.393Z,37.38
2018-07-25T07:22:20.414Z,37.26
2018-07-25T07:23:20.745Z,37.65
2018-07-25T07:24:20.739Z,37.85
2018-07-25T07:25:20.705Z,37.75
2018-07-25T07:26:20.700Z,38.04
2018-07-25T07:27:20.715Z,38.62
2018-07-25T07:28:20.706Z,38.43
2018-07-25T07:29:20.334Z,38.13
2018-07-25T07:30:20.685Z,38.43
2018-07-25T07:31:20.359Z,38.62
2018-07-25T07:32:20.665Z,38.70
2018-07-25T07:33:20.681Z,38.91
2018-07-25T07:34:20.336Z,38.89
2018-07-25T07:35:33.080Z,39.09
2018-07-25T07:36:20.327Z,39.09
2018-07-25T07:37:20.388Z,39.37
2018-07-25T07:38:20.307Z,39.57
2018-07-25T07:39:20.307Z,39.76
2018-07-25T07:40:20.620Z,39.67
2018-07-25T07:41:20.615Z,39.57
2018-07-25T07:42:20.270Z,39.47
2018-07-25T07:43:20.620Z,39.57
2018-07-25T07:44:20.283Z,39.57
2018-07-25T07:45:20.619Z,39.86
2018-07-25T07:46:20.585Z,39.76
2018-07-25T07:47:20.598Z,39.37
2018-07-25T07:48:20.576Z,39.76
2018-07-25T07:49:20.234Z,39.95
2018-07-25T07:50:20.564Z,39.86
2018-07-25T07:51:20.563Z,39.95
2018-07-25T07:52:20.212Z,39.95
2018-07-25T07:53:20.559Z,40.15
2018-07-25T07:54:20.547Z,40.15
2018-07-25T07:55:20.552Z,40.05
2018-07-25T07:56:20.543Z,40.15
2018-07-25T07:57:20.525Z,40.34
2018-07-25T07:58:20.519Z,40.05
2018-07-25T07:59:20.532Z,40.15
2018-07-25T08:00:20.189Z,40.05
2018-07-25T08:01:20.163Z,40.15
2018-07-25T08:02:20.514Z,40.15
2018-07-25T08:03:20.504Z,40.25
2018-07-25T08:04:20.169Z,40.34
2018-07-25T08:05:20.476Z,40.34
2018-07-25T08:06:20.479Z,40.25
2018-07-25T08:07:20.481Z,40.25
2018-07-25T08:08:20.458Z,40.44
2018-07-25T08:09:20.468Z,40.34
2018-07-25T08:10:20.466Z,40.34
2018-07-25T08:11:20.131Z,40.53
2018-07-25T08:12:20.438Z,40.63
2018-07-25T08:13:20.111Z,40.53
2018-07-25T08:14:20.424Z,40.25
2018-07-25T08:15:20.422Z,40.44
2018-07-25T08:16:20.428Z,40.44
2018-07-25T08:17:20.429Z,40.34
2018-07-25T08:18:20.068Z,40.44
2018-07-25T08:19:20.423Z,40.34
2018-07-25T08:20:20.394Z,40.34
2018-07-25T08:21:20.385Z,40.25
2018-07-25T08:22:20.377Z,40.44
2018-07-25T08:23:20.376Z,40.25
2018-07-25T08:24:20.027Z,40.25
2018-07-25T08:25:20.373Z,40.25
2018-07-25T08:26:20.354Z,40.53
2018-07-25T08:27:20.349Z,40.53
2018-07-25T08:28:20.009Z,40.34
2018-07-25T08:29:20.359Z,40.53
2018-07-25T08:30:20.350Z,40.63
2018-07-25T08:31:20.345Z,40.53
2018-07-25T08:32:20.343Z,40.44
2018-07-25T08:33:19.979Z,40.34
2018-07-25T08:34:20.314Z,40.25
2018-07-25T08:35:20.318Z,40.05
2018-07-25T08:36:20.296Z,40.44
2018-07-25T08:37:20.312Z,40.34
2018-07-25T08:38:20.301Z,40.25
2018-07-25T08:39:20.302Z,40.15
2018-07-25T08:40:19.940Z,40.34
2018-07-25T08:41:20.326Z,40.25
2018-07-25T08:42:20.266Z,40.15
2018-07-25T08:43:20.278Z,40.15
2018-07-25T08:44:20.258Z,40.15
2018-07-25T08:45:19.912Z,40.15
2018-07-25T08:46:20.245Z,40.05
2018-07-25T08:47:20.255Z,40.15
2018-07-25T08:48:20.233Z,40.05
2018-07-25T08:49:20.237Z,40.25
2018-07-25T08:50:20.224Z,40.34
2018-07-25T08:51:20.224Z,40.05
2018-07-25T08:52:19.894Z,39.95
2018-07-25T08:53:19.886Z,39.67
2018-07-25T08:54:19.867Z,39.76
2018-07-25T08:55:20.215Z,39.57
2018-07-25T08:56:20.189Z,39.37
2018-07-25T08:57:20.182Z,39.01
2018-07-25T08:58:20.173Z,38.71
2018-07-25T08:59:20.171Z,38.53
2018-07-25T09:00:20.179Z,38.23
2018-07-25T09:01:19.845Z,38.71
2018-07-25T09:02:20.148Z,37.77
2018-07-25T09:03:19.829Z,37.67
2018-07-25T09:04:20.136Z,37.75
2018-07-25T09:05:20.140Z,37.67
2018-07-25T09:06:20.170Z,37.77
2018-07-25T09:07:20.122Z,37.65
2018-07-25T09:08:19.778Z,37.65
2018-07-25T09:09:20.127Z,37.55
2018-07-25T09:10:20.124Z,37.46
2018-07-25T09:11:20.120Z,37.46
2018-07-25T09:12:20.095Z,37.46
2018-07-25T09:13:20.088Z,37.65
2018-07-25T09:14:19.774Z,38.13
2018-07-25T09:15:20.094Z,38.62
2018-07-25T09:16:20.086Z,38.62
2018-07-25T09:17:20.076Z,37.87
2018-07-25T09:18:20.067Z,37.77
2018-07-25T09:19:19.738Z,37.77
2018-07-25T09:20:20.061Z,37.48
2018-07-25T09:21:20.048Z,37.46
2018-07-25T09:23:51.985Z,37.48
2018-07-25T09:24:52.097Z,37.48
2018-07-25T09:26:45.459Z,37.55
2018-07-25T09:27:45.431Z,37.28
2018-07-25T09:29:38.957Z,37.28
2018-07-25T09:30:38.787Z,37.36
2018-07-25T09:32:31.787Z,37.46
2018-07-25T09:33:32.136Z,37.65
2018-07-25T09:35:26.234Z,37.36
2018-07-25T09:36:25.468Z,37.55
2018-07-25T09:39:50.563Z,37.46
2018-07-25T09:40:50.569Z,37.46
2018-07-25T09:42:44.461Z,37.55
2018-07-25T09:43:44.238Z,37.65
2018-07-25T09:45:37.588Z,37.26
2018-07-25T09:46:37.288Z,37.65
2018-07-25T09:48:30.768Z,37.46
2018-07-25T09:49:30.578Z,37.26
2018-07-25T09:51:24.251Z,37.54
2018-07-25T09:52:23.908Z,37.73
2018-07-25T09:54:17.840Z,38.60
2018-07-25T09:55:17.588Z,37.82
2018-07-25T09:57:10.594Z,37.92
2018-07-25T09:58:10.936Z,37.82
2018-07-25T10:00:04.521Z,37.73
2018-07-25T10:01:04.303Z,37.82
2018-07-25T10:02:57.643Z,38.12
2018-07-25T10:03:57.643Z,38.41
2018-07-25T10:05:51.201Z,38.41
2018-07-25T10:06:50.971Z,38.71
2018-07-25T10:08:43.980Z,37.73
2018-07-25T10:09:43.964Z,38.23
2018-07-25T10:11:37.852Z,37.65
2018-07-25T10:12:37.348Z,37.85
2018-07-25T10:14:31.006Z,37.75
2018-07-25T10:15:31.024Z,37.73
2018-07-25T10:17:24.601Z,37.63
2018-07-25T10:18:24.361Z,37.54
2018-07-25T10:20:16.892Z,37.82
2018-07-25T10:21:16.912Z,37.54
2018-07-25T10:23:10.787Z,38.21
2018-07-25T10:24:10.563Z,38.60
2018-07-25T10:26:03.898Z,38.70
2018-07-25T10:27:03.890Z,38.60
2018-07-25T10:28:57.106Z,38.70
2018-07-25T10:29:57.261Z,37.82
2018-07-25T10:31:50.601Z,37.63
2018-07-25T10:32:50.661Z,37.44
2018-07-25T10:34:44.174Z,37.54
2018-07-25T10:35:43.936Z,37.54
2018-07-25T10:37:37.270Z,37.92
2018-07-25T10:38:37.280Z,37.82
2018-07-25T10:40:30.867Z,37.24
2018-07-25T10:41:30.607Z,37.63
2018-07-25T10:43:23.975Z,37.63
2018-07-25T10:44:23.947Z,37.05
2018-07-25T10:46:17.192Z,37.63
2018-07-25T10:47:17.289Z,37.54
2018-07-25T10:49:10.656Z,37.44
2018-07-25T10:50:10.318Z,37.36
2018-07-25T10:52:04.207Z,37.15
2018-07-25T10:53:03.978Z,37.15
2018-07-25T10:54:57.320Z,36.96
2018-07-25T10:55:57.353Z,36.78
2018-07-25T10:57:50.892Z,36.88
2018-07-25T10:58:50.667Z,36.78
2018-07-25T11:00:44.032Z,36.78
2018-07-25T11:01:44.011Z,36.68
2018-07-25T11:03:37.554Z,36.57
2018-07-25T11:04:37.349Z,36.76
2018-07-25T11:06:30.718Z,37.05
2018-07-25T11:07:30.372Z,37.24
2018-07-25T11:09:24.298Z,37.63
2018-07-25T11:10:24.062Z,37.24
2018-07-25T11:12:17.397Z,37.46
2018-07-25T11:13:17.387Z,37.65
2018-07-25T11:15:10.568Z,37.65
2018-07-25T11:16:10.714Z,37.15
2018-07-25T11:18:04.095Z,37.46
2018-07-25T11:19:03.751Z,37.46
2018-07-25T11:20:57.590Z,37.75
2018-07-25T11:21:57.424Z,37.75
2018-07-25T11:23:50.761Z,37.55
2018-07-25T11:24:50.758Z,37.07
2018-07-25T11:26:44.337Z,37.17
2018-07-25T11:27:44.107Z,37.36
2018-07-25T11:29:37.462Z,37.36
2018-07-25T11:30:37.455Z,37.07
2018-07-25T11:32:31.126Z,36.88
2018-07-25T11:33:30.793Z,36.68
2018-07-25T11:35:24.128Z,36.88
2018-07-25T11:36:23.807Z,36.68
2018-07-25T11:38:17.775Z,37.24
2018-07-25T11:39:17.148Z,37.15
2018-07-25T11:41:10.354Z,37.73
2018-07-25T11:42:10.346Z,37.54
2018-07-25T11:44:03.905Z,37.24
2018-07-25T11:45:03.686Z,37.54
2018-07-25T11:46:57.013Z,37.42
2018-07-25T11:47:57.009Z,37.44
2018-07-25T11:49:50.556Z,37.23
2018-07-25T11:50:50.048Z,37.73
2018-07-25T11:52:43.700Z,37.52
2018-07-25T11:53:43.716Z,37.62
2018-07-25T11:55:37.065Z,37.71
2018-07-25T11:56:37.040Z,37.62
2018-07-25T11:58:30.408Z,37.71
2018-07-25T11:59:30.399Z,37.71
2018-07-25T12:01:23.613Z,38.10
2018-07-25T12:02:23.749Z,38.58
2018-07-25T12:04:17.114Z,38.68
2018-07-25T12:05:17.072Z,38.78
2018-07-25T12:07:10.360Z,38.58
2018-07-25T12:08:10.433Z,38.68
2018-07-25T12:10:03.760Z,38.39
2018-07-25T12:11:03.767Z,38.10
2018-07-25T12:12:57.321Z,38.39
2018-07-25T12:13:56.758Z,38.20
2018-07-25T12:15:50.465Z,38.20
2018-07-25T12:16:50.463Z,38.20
2018-07-25T12:18:44.016Z,38.39
2018-07-25T12:19:43.780Z,38.20
2018-07-25T12:21:37.148Z,38.20
2018-07-25T12:22:37.137Z,38.39
2018-07-25T12:24:30.655Z,38.20
2018-07-25T12:25:30.462Z,38.29
2018-07-25T12:27:23.611Z,38.29
2018-07-25T12:28:23.467Z,38.29
2018-07-25T12:30:17.362Z,38.29
2018-07-25T12:31:16.835Z,38.18
2018-07-25T12:33:10.517Z,38.18
2018-07-25T12:34:10.508Z,38.29
2018-07-25T12:36:04.080Z,38.58
2018-07-25T12:37:03.832Z,38.29
2018-07-25T12:38:57.204Z,38.56
2018-07-25T12:39:57.184Z,38.39
2018-07-25T12:41:51.294Z,38.37
2018-07-25T12:42:50.578Z,38.58
2018-07-25T12:44:43.887Z,38.56
2018-07-25T12:45:43.881Z,38.46
2018-07-25T12:47:37.452Z,38.37
2018-07-25T12:48:37.210Z,38.37
2018-07-25T12:50:30.553Z,38.37
2018-07-25T12:51:30.546Z,38.46
2018-07-25T12:53:24.138Z,38.46
2018-07-25T12:54:23.888Z,38.37
2018-07-25T12:56:17.259Z,38.46
2018-07-25T12:57:16.926Z,38.56
2018-07-25T12:59:10.811Z,38.56
2018-07-25T13:00:10.579Z,38.56
2018-07-25T13:02:03.618Z,38.46
2018-07-25T13:03:03.937Z,38.46
2018-07-25T13:04:57.183Z,38.46
2018-07-25T13:05:57.282Z,38.46
2018-07-25T13:07:50.623Z,38.46
2018-07-25T13:08:50.602Z,38.66
2018-07-25T13:10:44.176Z,38.66
2018-07-25T13:11:43.946Z,38.66
2018-07-25T13:13:37.292Z,38.76
2018-07-25T13:14:36.951Z,38.46
2018-07-25T13:16:30.836Z,38.66
2018-07-25T13:17:30.648Z,38.66
2018-07-25T13:19:24.012Z,38.66
2018-07-25T13:20:23.977Z,38.56
2018-07-25T13:22:17.598Z,38.56
2018-07-25T13:23:17.324Z,38.46
2018-07-25T13:25:09.860Z,38.66
2018-07-25T13:26:10.197Z,38.66
2018-07-25T13:28:03.416Z,38.76
2018-07-25T13:29:03.205Z,38.66
2018-07-25T13:30:56.536Z,38.56
2018-07-25T13:31:56.867Z,38.56
2018-07-25T13:33:50.391Z,38.56
2018-07-25T13:34:50.222Z,38.28
2018-07-25T13:36:43.599Z,38.56
2018-07-25T13:37:43.549Z,38.56
2018-07-25T13:39:36.756Z,38.46
2018-07-25T13:40:36.551Z,38.56
2018-07-25T13:42:29.925Z,38.66
2018-07-25T13:43:30.235Z,38.28
2018-07-25T13:45:23.802Z,38.66
2018-07-25T13:46:23.700Z,38.46
2018-07-25T13:48:16.943Z,38.28
2018-07-25T13:49:16.930Z,38.76
2018-07-25T13:51:10.501Z,38.37
2018-07-25T13:52:10.260Z,38.66
2018-07-25T13:54:03.620Z,38.76
2018-07-25T13:55:03.603Z,38.66
2018-07-25T13:56:56.790Z,38.56
2018-07-25T13:57:56.944Z,38.66
2018-07-25T13:59:50.325Z,38.66
2018-07-25T14:00:49.969Z,38.66
2018-07-25T14:02:43.857Z,38.56
2018-07-25T14:03:43.628Z,38.76
2018-07-25T14:05:36.969Z,38.28
2018-07-25T14:06:36.976Z,38.66
2018-07-25T14:08:30.521Z,38.66
2018-07-25T14:09:30.326Z,38.46
2018-07-25T14:11:23.689Z,38.66
2018-07-25T14:12:23.656Z,38.66
2018-07-25T14:14:17.230Z,38.56
2018-07-25T14:15:17.014Z,38.76
2018-07-25T14:17:10.940Z,38.66
2018-07-25T14:18:10.071Z,38.66
2018-07-25T14:20:03.892Z,38.76
2018-07-25T14:21:03.346Z,38.56
2018-07-25T14:22:57.023Z,38.56
2018-07-25T14:23:56.928Z,38.66
2018-07-25T14:25:50.549Z,38.66
2018-07-25T14:26:50.421Z,38.28
2018-07-25T14:28:43.750Z,38.66